Time;durP1;ratioP1;P1;durP2;ratioP2;P2;SDS_P1;SDS_P2;PMS_P1;PMS_P2;Temp;Humidity;BMP_temperature;BMP_pressure;BME280_temperature;BME280_humidity;BME280_pressure;Samples;Min_cycle;Max_cycle;Signal;HPM_P1;HPM_P2
2022/09/17 00:01:37;;;;;;;;;;;;;;;10.08;91.33;101308.56;5045027;28;19917;-55
2022/09/17 00:04:03;;;;;;;;;;;;;;;10.11;91.45;101308.25;5047984;28;19955;-54
2022/09/17 00:06:28;;;;;;;;;;;;;;;10.11;91.69;101313.56;5042621;28;20008;-54
2022/09/17 00:08:54;;;;;;;;;;;;;;;10.13;92.02;101314.25;5044847;28;19924;-52
2022/09/17 00:11:27;;;;;;;;;;;;;;;10.16;91.75;101313.13;5044024;28;19924;-54
2022/09/17 00:13:53;;;;;;;;;;;;;;;10.20;91.48;101317.97;5039259;28;19921;-54
2022/09/17 00:16:23;;;;;;;;;;;;;;;10.24;91.79;101314.03;5039648;28;19970;-54
2022/09/17 00:18:49;;;;;;;;;;;;;;;10.27;91.54;101315.53;5047425;28;19924;-54
2022/09/17 00:21:15;;;;;;;;;;;;;;;10.31;91.27;101311.56;5035225;28;19914;-55
2022/09/17 00:23:41;;;;;;;;;;;;;;;10.34;91.11;101324.53;5048567;28;20553;-53
2022/09/17 00:26:06;;;;;;;;;;;;;;;10.36;90.93;101319.88;5044412;28;19936;-52
2022/09/17 00:28:31;;;;;;;;;;;;;;;10.36;91.10;101324.38;5048648;28;19925;-55
2022/09/17 00:30:56;;;;;;;;;;;;;;;10.38;90.90;101319.72;5040117;28;19913;-53
2022/09/17 00:33:22;;;;;;;;;;;;;;;10.39;90.77;101321.38;5041482;28;19917;-53
2022/09/17 00:35:56;;;;;;;;;;;;;;;10.39;90.66;101318.72;5048163;28;19916;-54
2022/09/17 00:38:21;;;;;;;;;;;;;;;10.41;90.54;101322.09;5046528;28;19921;-54
2022/09/17 00:40:46;;;;;;;;;;;;;;;10.42;90.34;101326.41;5048520;28;19920;-54
2022/09/17 00:43:11;;;;;;;;;;;;;;;10.44;90.33;101332.41;5045409;28;19913;-54
2022/09/17 00:45:37;;;;;;;;;;;;;;;10.45;90.26;101328.75;5047847;28;19917;-55
2022/09/17 00:48:04;;;;;;;;;;;;;;;10.45;89.63;101339.38;5044464;28;20082;-54
2022/09/17 00:50:40;;;;;;;;;;;;;;;10.43;89.84;101328.91;5049739;28;19923;-54
2022/09/17 00:53:11;;;;;;;;;;;;;;;10.44;89.81;101337.72;5044584;28;19942;-55
2022/09/17 00:55:44;;;;;;;;;;;;;;;10.44;89.49;101343.00;5043512;28;19928;-54
2022/09/17 00:58:11;;;;;;;;;;;;;;;10.45;89.38;101339.38;5048085;28;19924;-54
2022/09/17 01:00:38;;;;;;;;;;;;;;;10.46;89.62;101343.69;5050859;28;19929;-55
2022/09/17 01:03:03;;;;;;;;;;;;;;;10.44;89.59;101341.19;5044406;28;19913;-55
2022/09/17 01:05:44;;;;;;;;;;;;;;;10.46;89.13;101341.88;5042950;28;19916;-55
2022/09/17 01:08:12;;;;;;;;;;;;;;;10.44;89.09;101333.22;5040837;28;19948;-55
2022/09/17 01:10:56;;;;;;;;;;;;;;;10.45;89.21;101342.03;5038826;28;19931;-55
2022/09/17 01:13:36;;;;;;;;;;;;;;;10.43;89.19;101349.31;5047578;28;19920;-55
2022/09/17 01:16:01;;;;;;;;;;;;;;;10.46;88.93;101364.94;5043487;28;20007;-55
2022/09/17 01:18:45;;;;;;;;;;;;;;;10.46;89.45;101354.31;5045617;28;20014;-54
2022/09/17 01:21:22;;;;;;;;;;;;;;;10.43;89.23;101355.47;5037336;28;19921;-54
2022/09/17 01:23:48;;;;;;;;;;;;;;;10.46;88.96;101359.63;5048774;28;19926;-55
2022/09/17 01:26:22;;;;;;;;;;;;;;;10.43;89.24;101358.13;5048407;28;19924;-54
2022/09/17 01:28:53;;;;;;;;;;;;;;;10.39;89.07;101355.91;5046517;28;19963;-54
2022/09/17 01:31:32;;;;;;;;;;;;;;;10.41;89.13;101353.94;5037829;28;19974;-56
2022/09/17 01:34:16;;;;;;;;;;;;;;;10.39;89.31;101362.03;5041472;28;19917;-55
2022/09/17 01:36:47;;;;;;;;;;;;;;;10.40;89.14;101357.56;5042174;28;19923;-54
2022/09/17 01:39:29;;;;;;;;;;;;;;;10.41;89.02;101364.56;5044854;28;20011;-55
2022/09/17 01:42:13;;;;;;;;;;;;;;;10.40;89.08;101360.22;5043156;28;19916;-55
2022/09/17 01:45:04;;;;;;;;;;;;;;;10.39;89.12;101367.34;5039765;28;20004;-54
2022/09/17 01:47:33;;;;;;;;;;;;;;;10.39;89.06;101369.19;5037998;28;19917;-54
2022/09/17 01:50:19;;;;;;;;;;;;;;;10.35;89.06;101371.31;5045213;28;19917;-55
2022/09/17 01:52:47;;;;;;;;;;;;;;;10.33;88.57;101375.13;5037492;28;20695;-55
2022/09/17 01:55:14;;;;;;;;;;;;;;;10.32;88.52;101368.16;5045908;28;19971;-55
2022/09/17 01:57:44;;;;;;;;;;;;;;;10.27;88.51;101367.78;5047928;28;20300;-54
2022/09/17 02:00:11;;;;;;;;;;;;;;;10.27;88.40;101367.78;5042291;28;19932;-55
2022/09/17 02:02:49;;;;;;;;;;;;;;;10.22;88.71;101374.41;5042437;28;20528;-54
2022/09/17 02:05:17;;;;;;;;;;;;;;;10.20;88.88;101362.25;5042378;28;19962;-55
2022/09/17 02:07:45;;;;;;;;;;;;;;;10.16;88.69;101369.69;5041710;28;19924;-56
2022/09/17 02:10:16;;;;;;;;;;;;;;;10.17;88.80;101373.16;5042619;28;19916;-56
2022/09/17 02:12:44;;;;;;;;;;;;;;;10.17;88.86;101376.66;5040632;28;19920;-54
2022/09/17 02:15:14;;;;;;;;;;;;;;;10.20;88.92;101359.59;5041371;28;19956;-54
2022/09/17 02:17:42;;;;;;;;;;;;;;;10.24;89.30;101367.09;5042245;28;19924;-53
2022/09/17 02:20:08;;;;;;;;;;;;;;;10.26;89.52;101374.09;5049596;28;20198;-53
2022/09/17 02:22:34;;;;;;;;;;;;;;;10.26;89.26;101366.13;5040689;28;20395;-55
2022/09/17 02:25:02;;;;;;;;;;;;;;;10.27;89.05;101373.09;5051072;28;19930;-54
2022/09/17 02:27:34;;;;;;;;;;;;;;;10.20;89.59;101375.50;5055126;28;19979;-54
2022/09/17 02:29:59;;;;;;;;;;;;;;;10.16;89.25;101372.34;5047387;28;19924;-54
2022/09/17 02:32:24;;;;;;;;;;;;;;;10.14;89.68;101368.16;5056967;28;19917;-54
2022/09/17 02:34:50;;;;;;;;;;;;;;;10.12;89.83;101372.78;5054357;28;20003;-54
2022/09/17 02:37:15;;;;;;;;;;;;;;;10.12;89.96;101367.47;5055023;28;20011;-53
2022/09/17 02:39:40;;;;;;;;;;;;;;;10.08;89.61;101379.38;5045223;28;19935;-54
2022/09/17 02:42:27;;;;;;;;;;;;;;;10.06;89.69;101376.88;5049270;28;19947;-54
2022/09/17 02:44:54;;;;;;;;;;;;;;;10.10;89.85;101378.22;5050136;28;19941;-55
2022/09/17 02:47:32;;;;;;;;;;;;;;;10.11;89.83;101385.22;5053046;28;19917;-54
2022/09/17 02:50:03;;;;;;;;;;;;;;;10.13;89.89;101383.25;5051295;28;19960;-56
2022/09/17 02:52:38;;;;;;;;;;;;;;;10.14;90.16;101384.09;5043625;28;19975;-54
2022/09/17 02:55:12;;;;;;;;;;;;;;;10.17;90.15;101374.00;5050610;28;19928;-55
2022/09/17 02:57:53;;;;;;;;;;;;;;;10.17;89.89;101379.31;5054492;28;19916;-54
2022/09/17 03:00:19;;;;;;;;;;;;;;;10.21;90.14;101383.34;5047392;28;19989;-54
2022/09/17 03:02:48;;;;;;;;;;;;;;;10.22;89.94;101382.34;5040402;28;19921;-54
2022/09/17 03:05:16;;;;;;;;;;;;;;;10.22;89.53;101387.66;5046784;28;20542;-54
2022/09/17 03:07:41;;;;;;;;;;;;;;;10.20;89.60;101394.09;5046992;28;20003;-54
2022/09/17 03:10:06;;;;;;;;;;;;;;;10.16;89.45;101380.28;5047700;28;20196;-54
2022/09/17 03:12:31;;;;;;;;;;;;;;;10.13;89.63;101383.25;5041220;28;19928;-54
2022/09/17 03:14:56;;;;;;;;;;;;;;;10.12;89.29;101388.69;5047361;28;19923;-55
2022/09/17 03:17:22;;;;;;;;;;;;;;;10.11;89.28;101389.69;5050777;28;19975;-52
2022/09/17 03:19:47;;;;;;;;;;;;;;;10.10;89.24;101383.53;5048231;28;19931;-55
2022/09/17 03:22:12;;;;;;;;;;;;;;;10.11;89.34;101390.50;5042181;28;20379;-51
2022/09/17 03:24:37;;;;;;;;;;;;;;;10.09;89.14;101392.50;5043774;28;19913;-55
2022/09/17 03:27:03;;;;;;;;;;;;;;;10.09;88.92;101387.19;5042568;28;20384;-52
2022/09/17 03:29:28;;;;;;;;;;;;;;;10.12;89.07;101383.38;5043685;28;19917;-54
2022/09/17 03:31:53;;;;;;;;;;;;;;;10.12;88.98;101384.25;5043997;28;19916;-54
2022/09/17 03:34:19;;;;;;;;;;;;;;;10.09;89.04;101381.88;5045350;28;20000;-55
2022/09/17 03:36:45;;;;;;;;;;;;;;;10.05;88.71;101377.88;5051084;28;19916;-54
2022/09/17 03:39:10;;;;;;;;;;;;;;;10.03;88.61;101371.06;5049351;28;20019;-51
2022/09/17 03:41:35;;;;;;;;;;;;;;;9.99;88.92;101367.88;5047876;28;20011;-54
2022/09/17 03:44:00;;;;;;;;;;;;;;;9.95;88.84;101385.09;5048868;28;19952;-54
2022/09/17 03:46:25;;;;;;;;;;;;;;;9.92;88.75;101375.63;5049629;28;19916;-54
2022/09/17 03:48:51;;;;;;;;;;;;;;;9.88;88.72;101376.09;5050490;28;19966;-55
2022/09/17 03:51:16;;;;;;;;;;;;;;;9.82;89.17;101377.50;5050655;28;19925;-54
2022/09/17 03:53:41;;;;;;;;;;;;;;;9.78;89.03;101373.50;5049850;28;19963;-52
2022/09/17 03:56:07;;;;;;;;;;;;;;;9.75;89.29;101383.56;5052077;28;20012;-52
2022/09/17 03:58:32;;;;;;;;;;;;;;;9.73;89.30;101389.03;5052128;28;20523;-53
2022/09/17 04:00:57;;;;;;;;;;;;;;;9.71;88.99;101395.47;5047216;28;20189;-54
2022/09/17 04:03:23;;;;;;;;;;;;;;;9.70;89.26;101399.13;5038501;28;20076;-54
2022/09/17 04:05:49;;;;;;;;;;;;;;;9.69;89.35;101400.09;5045166;28;19920;-54
2022/09/17 04:08:14;;;;;;;;;;;;;;;9.67;89.37;101391.47;5043223;28;19996;-54
2022/09/17 04:10:39;;;;;;;;;;;;;;;9.67;89.14;101397.59;5045808;28;19917;-55
2022/09/17 04:13:04;;;;;;;;;;;;;;;9.65;89.34;101410.19;5048492;28;20299;-55
2022/09/17 04:15:29;;;;;;;;;;;;;;;9.61;89.31;101403.50;5048815;28;20402;-54
2022/09/17 04:17:56;;;;;;;;;;;;;;;9.53;89.28;101401.59;5046269;28;19921;-55
2022/09/17 04:20:22;;;;;;;;;;;;;;;9.52;89.43;101407.88;5045498;28;19925;-56
2022/09/17 04:22:47;;;;;;;;;;;;;;;9.48;89.72;101403.88;5039051;28;20338;-55
2022/09/17 04:25:12;;;;;;;;;;;;;;;9.46;89.69;101403.19;5049293;28;19917;-55
2022/09/17 04:27:38;;;;;;;;;;;;;;;9.45;89.49;101401.50;5044491;28;19916;-54
2022/09/17 04:30:03;;;;;;;;;;;;;;;9.45;89.80;101401.50;5037355;28;20494;-55
2022/09/17 04:32:28;;;;;;;;;;;;;;;9.46;90.14;101405.84;5041083;28;19917;-57
2022/09/17 04:34:53;;;;;;;;;;;;;;;9.47;90.46;101401.38;5044959;28;20534;-54
2022/09/17 04:37:18;;;;;;;;;;;;;;;9.49;90.56;101400.22;5043691;28;19982;-53
2022/09/17 04:39:44;;;;;;;;;;;;;;;9.51;90.87;101398.25;5045101;28;19931;-52
2022/09/17 04:42:09;;;;;;;;;;;;;;;9.53;90.97;101408.72;5035086;28;19948;-52
2022/09/17 04:44:34;;;;;;;;;;;;;;;9.54;90.34;101408.59;5046155;28;19924;-53
2022/09/17 04:46:59;;;;;;;;;;;;;;;9.53;90.62;101409.53;5046892;28;19963;-56
2022/09/17 04:49:28;;;;;;;;;;;;;;;9.54;90.31;101408.59;5045382;28;19916;-54
2022/09/17 04:51:53;;;;;;;;;;;;;;;9.54;90.34;101405.94;5046374;28;20388;-53
2022/09/17 04:54:19;;;;;;;;;;;;;;;9.53;90.19;101403.41;5044398;28;19939;-53
2022/09/17 04:56:44;;;;;;;;;;;;;;;9.51;90.23;101406.22;5045378;28;19935;-54
2022/09/17 04:59:09;;;;;;;;;;;;;;;9.48;90.36;101395.06;5042597;28;19935;-54
2022/09/17 05:01:34;;;;;;;;;;;;;;;9.46;90.47;101400.53;5042753;28;19955;-55
2022/09/17 05:03:59;;;;;;;;;;;;;;;9.43;90.16;101400.00;5043073;28;19925;-54
2022/09/17 05:06:25;;;;;;;;;;;;;;;9.39;90.06;101404.78;5043675;28;19956;-54
2022/09/17 05:08:50;;;;;;;;;;;;;;;9.39;90.37;101409.25;5043228;28;19924;-55
2022/09/17 05:11:15;;;;;;;;;;;;;;;9.39;90.38;101404.78;5041650;28;20096;-53
2022/09/17 05:13:40;;;;;;;;;;;;;;;9.37;90.23;101404.09;5043573;28;19920;-54
2022/09/17 05:16:05;;;;;;;;;;;;;;;9.36;90.02;101412.19;5041603;28;19924;-51
2022/09/17 05:18:30;;;;;;;;;;;;;;;9.36;90.20;101420.13;5045442;28;20015;-55
2022/09/17 05:20:56;;;;;;;;;;;;;;;9.32;90.06;101412.50;5045273;28;19928;-53
2022/09/17 05:23:21;;;;;;;;;;;;;;;9.30;89.85;101413.63;5039842;28;20899;-53
2022/09/17 05:25:46;;;;;;;;;;;;;;;9.27;89.89;101421.88;5040951;28;19917;-52
2022/09/17 05:28:11;;;;;;;;;;;;;;;9.24;90.11;101420.31;5047114;28;19920;-55
2022/09/17 05:30:36;;;;;;;;;;;;;;;9.20;90.23;101418.94;5045764;28;20365;-53
2022/09/17 05:33:04;;;;;;;;;;;;;;;9.18;90.07;101433.34;5043212;28;19925;-52
2022/09/17 05:35:30;;;;;;;;;;;;;;;9.14;89.86;101434.63;5044453;28;19924;-52
2022/09/17 05:37:59;;;;;;;;;;;;;;;9.15;89.90;101425.69;5045750;28;19921;-54
2022/09/17 05:40:25;;;;;;;;;;;;;;;9.14;90.08;101434.63;5042689;28;19925;-55
2022/09/17 05:42:50;;;;;;;;;;;;;;;9.16;89.60;101435.28;5043782;28;19927;-52
2022/09/17 05:45:15;;;;;;;;;;;;;;;9.13;90.10;101438.25;5044641;28;19925;-55
2022/09/17 05:47:40;;;;;;;;;;;;;;;9.13;89.90;101440.88;5043140;28;19923;-51
2022/09/17 05:50:06;;;;;;;;;;;;;;;9.14;89.96;101440.75;5037697;28;19921;-53
2022/09/17 05:52:31;;;;;;;;;;;;;;;9.16;90.16;101446.72;5042527;28;20380;-52
2022/09/17 05:54:56;;;;;;;;;;;;;;;9.23;89.92;101454.91;5041388;28;19979;-54
2022/09/17 05:57:22;;;;;;;;;;;;;;;9.30;89.88;101462.16;5041266;28;20356;-54
2022/09/17 05:59:47;;;;;;;;;;;;;;;9.40;89.80;101461.28;5039704;28;20502;-50
2022/09/17 06:02:12;;;;;;;;;;;;;;;9.45;90.17;101462.50;5043226;28;19929;-54
2022/09/17 06:04:37;;;;;;;;;;;;;;;9.54;90.44;101460.75;5039573;28;19923;-54
2022/09/17 06:07:06;;;;;;;;;;;;;;;9.59;90.49;101451.41;5042757;28;20015;-55
2022/09/17 06:09:31;;;;;;;;;;;;;;;9.63;90.36;101444.81;5039142;28;19996;-54
2022/09/17 06:11:56;;;;;;;;;;;;;;;9.68;90.39;101446.16;5047236;28;20380;-55
2022/09/17 06:14:21;;;;;;;;;;;;;;;9.74;89.85;101445.56;5044192;28;19990;-54
2022/09/17 06:16:46;;;;;;;;;;;;;;;9.77;90.03;101451.41;5047211;28;19923;-55
2022/09/17 06:19:12;;;;;;;;;;;;;;;9.82;90.03;101461.56;5037133;28;20274;-55
2022/09/17 06:21:37;;;;;;;;;;;;;;;9.84;89.71;101457.78;5048741;28;19991;-54
2022/09/17 06:24:02;;;;;;;;;;;;;;;9.87;89.38;101468.09;5041022;28;19931;-54
2022/09/17 06:26:27;;;;;;;;;;;;;;;9.92;89.51;101462.34;5042749;28;19917;-53
2022/09/17 06:28:52;;;;;;;;;;;;;;;9.99;89.49;101463.41;5049551;28;19917;-54
2022/09/17 06:31:18;;;;;;;;;;;;;;;10.03;89.28;101464.75;5046323;28;19923;-53
2022/09/17 06:33:43;;;;;;;;;;;;;;;10.09;88.83;101458.84;5045837;28;19924;-54
2022/09/17 06:36:10;;;;;;;;;;;;;;;10.14;88.33;101459.25;5042528;28;19971;-56
2022/09/17 06:38:36;;;;;;;;;;;;;;;10.19;87.59;101462.25;5046142;28;19913;-54
2022/09/17 06:41:01;;;;;;;;;;;;;;;10.16;86.34;101467.88;5047191;28;20401;-55
2022/09/17 06:43:26;;;;;;;;;;;;;;;10.16;86.33;101467.06;5044027;28;20377;-54
2022/09/17 06:45:52;;;;;;;;;;;;;;;10.11;86.56;101471.94;5048105;28;20000;-55
2022/09/17 06:48:17;;;;;;;;;;;;;;;10.04;86.37;101468.25;5043934;28;19917;-55
2022/09/17 06:50:43;;;;;;;;;;;;;;;9.96;86.05;101465.53;5047093;28;19924;-53
2022/09/17 06:53:08;;;;;;;;;;;;;;;9.93;85.90;101472.81;5048956;28;19956;-53
2022/09/17 06:55:33;;;;;;;;;;;;;;;9.91;86.49;101469.47;5043315;28;20394;-53
2022/09/17 06:57:59;;;;;;;;;;;;;;;9.96;86.32;101471.66;5041864;28;19946;-52
2022/09/17 07:00:25;;;;;;;;;;;;;;;9.98;86.88;101469.69;5040499;28;19960;-53
2022/09/17 07:02:57;;;;;;;;;;;;;;;9.99;86.67;101471.34;5042576;28;19974;-54
2022/09/17 07:05:23;;;;;;;;;;;;;;;10.02;87.11;101471.06;5041798;28;19928;-54
2022/09/17 07:07:48;;;;;;;;;;;;;;;10.08;86.90;101473.09;5048611;28;20311;-54
2022/09/17 07:10:14;;;;;;;;;;;;;;;10.14;86.98;101471.69;5042149;28;19917;-53
2022/09/17 07:12:39;;;;;;;;;;;;;;;10.19;87.33;101477.34;5039313;28;19931;-54
2022/09/17 07:15:05;;;;;;;;;;;;;;;10.28;87.22;101484.44;5044964;28;19917;-52
2022/09/17 07:17:30;;;;;;;;;;;;;;;10.36;87.09;101483.66;5042194;28;20339;-52
2022/09/17 07:19:55;;;;;;;;;;;;;;;10.43;86.87;101482.06;5046383;28;20018;-54
2022/09/17 07:22:23;;;;;;;;;;;;;;;10.48;86.69;101482.44;5042892;28;19920;-52
2022/09/17 07:24:48;;;;;;;;;;;;;;;10.57;86.59;101480.69;5042213;28;19916;-54
2022/09/17 07:27:13;;;;;;;;;;;;;;;10.63;86.43;101490.66;5046094;28;19919;-54
2022/09/17 07:29:40;;;;;;;;;;;;;;;10.71;86.26;101488.94;5050602;28;19913;-54
2022/09/17 07:32:05;;;;;;;;;;;;;;;10.82;86.54;101490.50;5043120;28;19962;-53
2022/09/17 07:34:30;;;;;;;;;;;;;;;10.94;86.51;101496.38;5048585;28;19913;-52
2022/09/17 07:36:55;;;;;;;;;;;;;;;10.95;85.81;101485.56;5046933;28;19924;-53
2022/09/17 07:39:21;;;;;;;;;;;;;;;10.97;85.48;101485.41;5036542;28;19917;-54
2022/09/17 07:41:46;;;;;;;;;;;;;;;10.97;85.45;101480.09;5041594;28;19994;-54
2022/09/17 07:44:11;;;;;;;;;;;;;;;11.00;85.17;101483.31;5050616;28;19917;-54
2022/09/17 07:46:36;;;;;;;;;;;;;;;11.07;85.24;101494.13;5048679;28;19917;-53
2022/09/17 07:49:01;;;;;;;;;;;;;;;11.12;84.91;101483.84;5049496;28;19925;-54
2022/09/17 07:51:27;;;;;;;;;;;;;;;11.21;85.31;101485.56;5049192;28;19912;-54
2022/09/17 07:54:01;;;;;;;;;;;;;;;11.24;84.94;101492.38;5049488;28;20039;-53
2022/09/17 07:56:26;;;;;;;;;;;;;;;11.32;85.00;101482.63;5045050;28;19995;-54
2022/09/17 07:58:51;;;;;;;;;;;;;;;11.42;84.99;101482.50;5053170;28;20489;-55
2022/09/17 08:01:17;;;;;;;;;;;;;;;11.47;84.77;101489.00;5046147;28;20300;-55
2022/09/17 08:03:47;;;;;;;;;;;;;;;11.55;84.76;101488.19;5046184;28;19927;-55
2022/09/17 08:06:13;;;;;;;;;;;;;;;11.56;84.92;101489.84;5046664;28;20040;-55
2022/09/17 08:08:39;;;;;;;;;;;;;;;11.60;84.90;101488.56;5040210;28;19975;-54
2022/09/17 08:11:08;;;;;;;;;;;;;;;11.66;84.25;101485.25;5040141;28;19960;-54
2022/09/17 08:13:33;;;;;;;;;;;;;;;11.73;83.94;101496.06;5041383;28;19921;-54
2022/09/17 08:15:59;;;;;;;;;;;;;;;11.75;83.63;101494.06;5046020;28;19924;-54
2022/09/17 08:18:25;;;;;;;;;;;;;;;11.75;83.13;101489.59;5038939;28;20015;-53
2022/09/17 08:20:55;;;;;;;;;;;;;;;11.83;83.25;101495.94;5046048;28;22331;-54
2022/09/17 08:23:20;;;;;;;;;;;;;;;11.93;82.82;101484.19;5045941;28;20007;-55
2022/09/17 08:25:50;;;;;;;;;;;;;;;12.00;82.82;101487.84;5047236;28;20008;-55
2022/09/17 08:28:15;;;;;;;;;;;;;;;12.07;82.55;101483.53;5040805;28;19948;-55
2022/09/17 08:30:40;;;;;;;;;;;;;;;12.19;82.57;101475.22;5050170;28;19917;-54
2022/09/17 08:33:05;;;;;;;;;;;;;;;12.25;82.74;101483.38;5042398;28;19924;-55
2022/09/17 08:35:31;;;;;;;;;;;;;;;12.33;82.86;101487.88;5044351;28;19959;-54
2022/09/17 08:37:56;;;;;;;;;;;;;;;12.42;82.58;101478.88;5043267;28;20260;-53
2022/09/17 08:40:21;;;;;;;;;;;;;;;12.49;81.76;101487.88;5047996;28;19970;-55
2022/09/17 08:42:55;;;;;;;;;;;;;;;12.53;81.60;101480.38;5046024;28;19940;-53
2022/09/17 08:45:20;;;;;;;;;;;;;;;12.61;81.45;101480.38;5051457;28;19990;-52
2022/09/17 08:47:47;;;;;;;;;;;;;;;12.78;81.32;101483.88;5048547;28;19967;-52
2022/09/17 08:50:15;;;;;;;;;;;;;;;12.95;80.96;101485.47;5049714;28;19917;-54
2022/09/17 08:52:46;;;;;;;;;;;;;;;13.09;80.67;101482.13;5052004;28;20014;-54
2022/09/17 08:55:12;;;;;;;;;;;;;;;13.17;79.63;101492.78;5052767;28;19924;-54
2022/09/17 08:57:49;;;;;;;;;;;;;;;13.20;79.47;101503.13;5049518;28;19917;-54
2022/09/17 09:00:17;;;;;;;;;;;;;;;13.17;78.82;101498.13;5049921;28;20300;-54
2022/09/17 09:03:06;;;;;;;;;;;;;;;12.98;77.33;101501.97;5049120;28;19928;-54
2022/09/17 09:05:49;;;;;;;;;;;;;;;12.75;77.66;101490.38;5037379;28;19920;-53
2022/09/17 09:08:35;;;;;;;;;;;;;;;12.55;77.29;101497.88;5047739;28;19912;-55
2022/09/17 09:11:02;;;;;;;;;;;;;;;12.37;77.34;101505.19;5040391;28;19917;-54
2022/09/17 09:13:30;;;;;;;;;;;;;;;12.27;77.38;101507.19;5062483;28;19981;-54
2022/09/17 09:16:00;;;;;;;;;;;;;;;12.29;77.86;101505.19;5050589;28;19912;-53
2022/09/17 09:18:30;;;;;;;;;;;;;;;12.38;77.70;101506.84;5052046;28;19917;-54
2022/09/17 09:21:20;;;;;;;;;;;;;;;12.55;78.65;101513.84;5047160;28;20323;-52
2022/09/17 09:23:54;;;;;;;;;;;;;;;12.74;78.06;101507.34;5045793;28;19923;-55
2022/09/17 09:26:20;;;;;;;;;;;;;;;12.89;77.23;101524.31;5048619;28;19956;-54
2022/09/17 09:29:01;;;;;;;;;;;;;;;12.87;76.97;101510.31;5047430;28;20403;-54
2022/09/17 09:31:33;;;;;;;;;;;;;;;12.93;76.87;101516.81;5039276;28;19913;-54
2022/09/17 09:34:00;;;;;;;;;;;;;;;13.04;76.83;101516.47;5046973;28;20396;-54
2022/09/17 09:36:28;;;;;;;;;;;;;;;13.10;75.84;101510.47;5040870;28;19920;-55
2022/09/17 09:39:02;;;;;;;;;;;;;;;13.18;76.06;101513.13;5047519;28;19963;-54
2022/09/17 09:41:35;;;;;;;;;;;;;;;13.36;75.77;101517.41;5049247;28;19917;-54
2022/09/17 09:44:02;;;;;;;;;;;;;;;13.51;75.38;101518.34;5046152;28;19923;-55
2022/09/17 09:46:33;;;;;;;;;;;;;;;13.59;75.23;101508.50;5041937;28;19963;-54
2022/09/17 09:48:59;;;;;;;;;;;;;;;13.65;74.98;101514.97;5048625;28;19942;-55
2022/09/17 09:51:24;;;;;;;;;;;;;;;13.72;75.10;101513.25;5045607;28;20368;-55
2022/09/17 09:54:10;;;;;;;;;;;;;;;13.75;74.78;101507.56;5042594;28;20392;-54
2022/09/17 09:56:35;;;;;;;;;;;;;;;13.78;74.38;101509.88;5045021;28;19917;-54
2022/09/17 09:59:00;;;;;;;;;;;;;;;13.84;74.31;101503.00;5042163;28;19966;-55
2022/09/17 10:01:26;;;;;;;;;;;;;;;13.94;73.77;101520.47;5040708;28;20320;-55
2022/09/17 10:03:52;;;;;;;;;;;;;;;13.90;73.13;101507.66;5048054;28;19963;-53
2022/09/17 10:06:18;;;;;;;;;;;;;;;14.03;73.32;101523.09;5049755;28;20338;-55
2022/09/17 10:09:03;;;;;;;;;;;;;;;14.17;73.02;101520.50;5044349;28;20380;-54
2022/09/17 10:11:32;;;;;;;;;;;;;;;14.44;72.47;101529.00;5039047;28;19917;-54
2022/09/17 10:14:15;;;;;;;;;;;;;;;14.40;71.79;101525.84;5042834;28;19928;-53
2022/09/17 10:16:40;;;;;;;;;;;;;;;14.40;72.17;101535.69;5042082;28;19917;-55
2022/09/17 10:19:06;;;;;;;;;;;;;;;14.22;72.10;101519.97;5046109;28;20000;-55
2022/09/17 10:21:32;;;;;;;;;;;;;;;14.04;72.39;101511.41;5047288;28;19921;-55
2022/09/17 10:23:58;;;;;;;;;;;;;;;13.88;73.00;101513.19;5045590;28;20000;-55
2022/09/17 10:26:26;;;;;;;;;;;;;;;13.80;73.34;101515.88;5043614;28;19925;-53
2022/09/17 10:28:53;;;;;;;;;;;;;;;13.80;73.93;101510.53;5042454;28;19917;-51
2022/09/17 10:31:19;;;;;;;;;;;;;;;13.80;74.25;101505.19;5048469;28;19920;-54
2022/09/17 10:33:52;;;;;;;;;;;;;;;13.85;74.48;101505.50;5041798;28;19943;-51
2022/09/17 10:36:34;;;;;;;;;;;;;;;13.87;74.54;101495.47;5054462;28;19928;-53
2022/09/17 10:39:17;;;;;;;;;;;;;;;13.93;73.90;101494.78;5051625;28;19917;-55
2022/09/17 10:41:52;;;;;;;;;;;;;;;13.92;73.18;101485.13;5045571;28;20289;-55
2022/09/17 10:44:20;;;;;;;;;;;;;;;13.92;73.38;101482.44;5047219;28;19917;-55
2022/09/17 10:46:45;;;;;;;;;;;;;;;13.96;73.47;101493.59;5042134;28;19917;-55
2022/09/17 10:49:17;;;;;;;;;;;;;;;14.08;73.18;101494.00;5046024;28;20289;-55
2022/09/17 10:51:42;;;;;;;;;;;;;;;14.06;73.88;101498.69;5045258;28;20007;-54
2022/09/17 10:54:11;;;;;;;;;;;;;;;14.19;73.75;101490.94;5051588;28;20004;-54
2022/09/17 10:56:38;;;;;;;;;;;;;;;14.24;73.68;101491.25;5050368;28;20395;-54
2022/09/17 10:59:16;;;;;;;;;;;;;;;14.36;73.44;101496.97;5047247;28;19935;-54
2022/09/17 11:01:54;;;;;;;;;;;;;;;14.48;72.42;101496.41;5051045;28;20023;-53
2022/09/17 11:04:58;;;;;;;;;;;;;;;14.51;71.60;101500.56;5042585;28;19924;-54
2022/09/17 11:07:31;;;;;;;;;;;;;;;14.36;71.02;101497.81;5009440;28;19934;-52
2022/09/17 11:10:02;;;;;;;;;;;;;;;14.38;71.11;101492.28;5008682;28;19956;-55
2022/09/17 11:12:30;;;;;;;;;;;;;;;14.47;70.93;101489.41;5026741;28;19951;-53
2022/09/17 11:14:56;;;;;;;;;;;;;;;14.57;70.86;101492.66;5037173;28;19916;-55
2022/09/17 11:17:21;;;;;;;;;;;;;;;14.60;69.87;101486.13;5049944;28;19978;-54
2022/09/17 11:19:49;;;;;;;;;;;;;;;14.66;69.70;101485.38;5050024;28;19928;-54
2022/09/17 11:22:22;;;;;;;;;;;;;;;14.71;69.24;101482.16;5044351;28;19999;-55
2022/09/17 11:24:54;;;;;;;;;;;;;;;14.83;69.97;101470.84;5045836;28;20004;-55
2022/09/17 11:27:19;;;;;;;;;;;;;;;14.98;69.70;101483.41;5051184;28;19914;-54
2022/09/17 11:30:03;;;;;;;;;;;;;;;15.04;68.54;101485.38;5046545;28;19993;-54
2022/09/17 11:32:28;;;;;;;;;;;;;;;14.97;68.41;101485.25;5042315;28;19940;-54
2022/09/17 11:35:09;;;;;;;;;;;;;;;15.01;68.50;101480.34;5051990;28;19917;-55
2022/09/17 11:38:03;;;;;;;;;;;;;;;14.99;68.62;101460.97;5042182;28;19921;-56
2022/09/17 11:41:07;;;;;;;;;;;;;;;15.04;68.50;101469.31;5033481;28;20372;-54
2022/09/17 11:43:34;;;;;;;;;;;;;;;15.05;67.72;101470.97;4985379;28;19921;-54
2022/09/17 11:46:13;;;;;;;;;;;;;;;15.08;67.59;101474.09;4987269;28;20290;-55
2022/09/17 11:48:41;;;;;;;;;;;;;;;15.08;67.29;101465.25;5021265;28;19916;-55
2022/09/17 11:51:22;;;;;;;;;;;;;;;15.15;67.89;101456.28;5047668;28;19932;-55
2022/09/17 11:53:51;;;;;;;;;;;;;;;15.25;67.36;101442.63;5049909;28;19916;-54
2022/09/17 11:56:22;;;;;;;;;;;;;;;15.37;67.28;101451.03;5049008;28;19924;-54
2022/09/17 11:58:57;;;;;;;;;;;;;;;15.42;67.20;101440.56;5053473;28;19924;-53
2022/09/17 12:01:37;;;;;;;;;;;;;;;15.45;66.85;101443.69;5043705;28;19921;-55
2022/09/17 12:04:15;;;;;;;;;;;;;;;15.29;66.74;101443.06;5047744;28;19913;-55
2022/09/17 12:06:48;;;;;;;;;;;;;;;15.25;66.66;101447.13;5049471;28;20447;-54
2022/09/17 12:09:19;;;;;;;;;;;;;;;15.00;67.36;101470.66;5055780;28;19913;-53
2022/09/17 12:11:48;;;;;;;;;;;;;;;14.40;69.00;101464.38;5053875;28;19924;-54
2022/09/17 12:14:25;;;;;;;;;;;;;;;13.75;71.08;101474.69;5039338;28;19916;-53
2022/09/17 12:16:57;;;;;;;;;;;;;;;13.50;72.61;101460.66;5054281;28;19917;-54
2022/09/17 12:19:38;;;;;;;;;;;;;;;13.49;74.10;101456.31;5044704;28;19919;-54
2022/09/17 12:22:07;;;;;;;;;;;;;;;13.57;75.55;101456.25;5047854;28;19920;-53
2022/09/17 12:24:32;;;;;;;;;;;;;;;13.75;76.57;101456.84;5048785;28;19924;-54
2022/09/17 12:27:16;;;;;;;;;;;;;;;13.94;76.76;101445.72;5049964;28;19916;-54
2022/09/17 12:30:00;;;;;;;;;;;;;;;14.24;77.20;101448.50;5046359;28;19916;-54
2022/09/17 12:32:34;;;;;;;;;;;;;;;14.52;76.81;101448.78;5033450;28;19960;-54
2022/09/17 12:35:05;;;;;;;;;;;;;;;14.82;76.78;101444.31;5047568;28;19921;-55
2022/09/17 12:37:36;;;;;;;;;;;;;;;15.04;74.51;101445.25;5046103;28;19917;-55
2022/09/17 12:40:20;;;;;;;;;;;;;;;15.27;73.90;101426.38;5051683;28;19917;-54
2022/09/17 12:43:01;;;;;;;;;;;;;;;15.56;71.33;101441.53;5044598;28;19917;-52
2022/09/17 12:45:39;;;;;;;;;;;;;;;15.73;68.46;101435.81;5044239;28;19913;-55
2022/09/17 12:48:18;;;;;;;;;;;;;;;15.88;66.59;101438.44;5042315;28;19921;-54